Astor, Florida
Current Conditions -  °F | °C
As of 10:15 AM on Friday 31 Oct 2014 (Local Time) from KDED Reporting Station
Clear Clear  
Wind Chill: 20°   Ceiling: Unl
Heat Index: 20°   Visibility: 10mi
Dew Point: 16°   Wind: 7mph
Humidity: 78%   Direction: 320°NW
Pressure: 29.89"   Gusts: NA
Location:  29.15°N, 81.53°W
Report Text: KDED 311415Z AUTO 32006KT 10SM CLR 20/16 A2989 RMK AO1
Loading
Personal Weather Stations






























Interactive Weather Map New forecast layout! Learn more

10-Day Weather Forecast

Advertisements
Track Severe Weather on mobile